Time;durP1;ratioP1;P1;durP2;ratioP2;P2;SDS_P1;SDS_P2;PMS_P1;PMS_P2;Temp;Humidity;BMP_temperature;BMP_pressure;BME280_temperature;BME280_humidity;BME280_pressure;Samples;Min_cycle;Max_cycle;Signal;HPM_P1;HPM_P2
2022/01/16 00:01:07;;;;;;;68.25;32.60;;;4.30;99.90;;;;;;5063696;28;20115;-73
2022/01/16 00:06:18;;;;;;;80.72;32.20;;;4.30;99.90;;;;;;5053621;28;20039;-74
2022/01/16 00:08:44;;;;;;;59.53;31.67;;;4.20;99.90;;;;;;5053870;28;20395;-74
2022/01/16 00:11:13;;;;;;;70.85;32.95;;;4.30;99.90;;;;;;5053979;28;20040;-74
2022/01/16 00:13:38;;;;;;;72.07;33.20;;;4.20;99.90;;;;;;5054295;28;20036;-74
2022/01/16 00:16:04;;;;;;;68.93;33.65;;;4.20;99.90;;;;;;5053425;28;20029;-74
2022/01/16 00:18:41;;;;;;;94.10;37.05;;;4.20;99.90;;;;;;5053935;28;20468;-75
2022/01/16 00:21:07;;;;;;;72.28;34.83;;;4.20;99.90;;;;;;5053172;28;20446;-75
2022/01/16 00:23:32;;;;;;;73.95;33.78;;;4.10;99.90;;;;;;5053761;28;20755;-74
2022/01/16 00:25:58;;;;;;;70.22;34.35;;;4.10;99.90;;;;;;5053340;28;20036;-74
2022/01/16 00:28:24;;;;;;;77.53;34.88;;;4.20;99.90;;;;;;5053756;28;20033;-73
2022/01/16 00:30:52;;;;;;;86.20;34.90;;;4.20;99.90;;;;;;5053204;28;20067;-74
2022/01/16 00:33:18;;;;;;;73.25;36.60;;;4.10;99.90;;;;;;5053529;28;20028;-74
2022/01/16 00:35:44;;;;;;;78.68;34.85;;;4.10;99.90;;;;;;5053169;28;20712;-74
2022/01/16 00:38:10;;;;;;;69.60;34.45;;;4.20;99.90;;;;;;5042023;28;20025;-74
2022/01/16 00:40:36;;;;;;;83.53;36.97;;;4.20;99.90;;;;;;5051518;28;20017;-74
2022/01/16 00:43:02;;;;;;;125.05;40.65;;;4.20;99.90;;;;;;5053281;28;20025;-75
2022/01/16 00:45:34;;;;;;;82.47;38.75;;;4.10;99.90;;;;;;5053343;28;20028;-74
2022/01/16 00:48:04;;;;;;;143.27;40.10;;;4.10;99.90;;;;;;5053501;28;20033;-74
2022/01/16 00:50:31;;;;;;;81.30;38.17;;;4.20;99.90;;;;;;5052965;28;20033;-74
2022/01/16 00:52:57;;;;;;;79.82;37.17;;;4.20;99.90;;;;;;5053110;28;20499;-73
2022/01/16 00:55:23;;;;;;;85.03;37.20;;;4.20;99.90;;;;;;5053139;28;20028;-73
2022/01/16 00:57:49;;;;;;;87.07;38.88;;;4.10;99.90;;;;;;5057196;28;20039;-73
2022/01/16 01:00:14;;;;;;;78.03;38.40;;;4.10;99.90;;;;;;5058695;28;20079;-73
2022/01/16 01:02:40;;;;;;;81.25;37.95;;;4.10;99.90;;;;;;5052985;28;20468;-73
2022/01/16 01:05:08;;;;;;;86.85;38.55;;;4.20;99.90;;;;;;5052791;28;20068;-73
2022/01/16 01:07:38;;;;;;;85.88;38.05;;;4.20;99.90;;;;;;5053220;28;20037;-74
2022/01/16 01:10:05;;;;;;;83.25;38.05;;;4.20;99.90;;;;;;5052693;28;20036;-73
2022/01/16 01:12:51;;;;;;;79.32;36.47;;;4.10;99.90;;;;;;5052881;28;20504;-74
2022/01/16 01:15:18;;;;;;;92.07;36.47;;;4.10;99.90;;;;;;5057256;28;20043;-74
2022/01/16 01:17:46;;;;;;;69.30;34.15;;;4.00;99.90;;;;;;5059972;28;20036;-74
2022/01/16 01:20:15;;;;;;;76.80;34.72;;;4.00;99.90;;;;;;5059440;28;20387;-73
2022/01/16 01:22:41;;;;;;;89.80;34.72;;;3.90;99.90;;;;;;5059162;28;20508;-74
2022/01/16 01:25:08;;;;;;;75.78;32.55;;;3.90;99.90;;;;;;5059114;28;20066;-73
2022/01/16 01:27:35;;;;;;;72.78;33.33;;;3.80;99.90;;;;;;5059476;28;20040;-75
2022/01/16 01:30:09;;;;;;;65.40;31.42;;;3.80;99.90;;;;;;5059096;28;20029;-74
2022/01/16 01:32:36;;;;;;;69.18;31.00;;;3.80;99.90;;;;;;5059340;28;20047;-74
2022/01/16 01:35:04;;;;;;;69.97;33.85;;;3.80;99.90;;;;;;5058988;28;20060;-74
2022/01/16 01:37:29;;;;;;;63.38;32.13;;;3.80;99.90;;;;;;5059403;28;20079;-74
2022/01/16 01:39:55;;;;;;;77.32;32.92;;;3.80;99.90;;;;;;5059358;28;20468;-73
2022/01/16 01:42:21;;;;;;;75.05;34.85;;;3.80;99.90;;;;;;5058949;28;20068;-73
2022/01/16 01:51:15;;;;;;;74.30;31.60;;;3.60;99.90;;;;;;5059215;28;20088;-74
2022/01/16 01:53:13;;;;;;;102.00;33.78;;;3.60;99.90;;;;;;5038555;28;20025;-73
2022/01/16 01:55:42;;;;;;;96.65;33.85;;;3.60;99.90;;;;;;5076281;28;20036;-74
2022/01/16 01:58:09;;;;;;;90.93;33.53;;;3.60;99.90;;;;;;5073529;28;20502;-74
2022/01/16 02:00:35;;;;;;;67.53;31.92;;;3.60;99.90;;;;;;5060891;28;20230;-74
2022/01/16 02:05:30;;;;;;;89.55;33.53;;;3.50;99.90;;;;;;5058952;28;20388;-73
2022/01/16 02:07:56;;;;;;;78.97;32.28;;;3.60;99.90;;;;;;5059057;28;20025;-74
2022/01/16 02:10:22;;;;;;;74.93;31.73;;;3.50;99.90;;;;;;5058803;28;20094;-74
2022/01/16 02:12:55;;;;;;;133.27;33.90;;;3.60;99.90;;;;;;5059249;28;20461;-74
2022/01/16 02:34:47;;;;;;;73.75;31.80;;;3.70;99.90;;;;;;5054668;28;20036;-73
2022/01/16 02:37:15;;;;;;;76.80;33.78;;;3.70;99.90;;;;;;5055508;28;20116;-73
2022/01/16 02:39:45;;;;;;;71.65;32.65;;;3.70;99.90;;;;;;5055126;28;20033;-74
2022/01/16 02:42:12;;;;;;;112.60;34.35;;;3.80;99.90;;;;;;5055915;28;20041;-73
2022/01/16 02:44:47;;;;;;;78.72;33.13;;;3.90;99.90;;;;;;5055455;28;20029;-74
2022/01/16 02:47:17;;;;;;;67.18;31.15;;;4.00;99.90;;;;;;5050049;28;20388;-73
2022/01/16 02:49:47;;;;;;;121.28;31.80;;;4.00;99.90;;;;;;5036170;28;20033;-74
2022/01/16 02:52:15;;;;;;;74.20;32.00;;;4.10;99.90;;;;;;5032201;28;20045;-73
2022/01/16 02:54:43;;;;;;;72.63;31.88;;;4.10;99.90;;;;;;5031179;28;20477;-74
2022/01/16 02:57:12;;;;;;;136.57;34.17;;;4.20;99.90;;;;;;5019908;28;20030;-73
2022/01/16 02:59:48;;;;;;;75.95;32.47;;;4.20;99.90;;;;;;5027559;28;20452;-73
2022/01/16 03:02:14;;;;;;;66.47;31.85;;;4.20;99.90;;;;;;5031430;28;20034;-74
2022/01/16 03:04:40;;;;;;;77.38;34.30;;;4.20;99.90;;;;;;5034342;28;20022;-74
2022/01/16 03:07:05;;;;;;;75.53;32.50;;;4.10;99.90;;;;;;5044156;28;20028;-74
2022/01/16 03:09:59;;;;;;;83.10;34.42;;;4.10;99.90;;;;;;5055318;28;20017;-74
2022/01/16 03:12:25;;;;;;;102.00;33.38;;;4.10;99.90;;;;;;5055003;28;20040;-74
2022/01/16 03:14:51;;;;;;;74.53;32.35;;;4.10;99.90;;;;;;5054482;28;20060;-74
2022/01/16 03:17:29;;;;;;;91.03;31.83;;;4.10;99.90;;;;;;5055005;28;20060;-74
2022/01/16 03:22:39;;;;;;;113.35;31.98;;;4.10;99.90;;;;;;5051801;28;20039;-74
2022/01/16 03:25:04;;;;;;;66.22;30.88;;;4.10;99.90;;;;;;5054694;28;20108;-74
2022/01/16 03:27:30;;;;;;;71.03;30.65;;;4.10;99.90;;;;;;5054739;28;20033;-75
2022/01/16 03:29:57;;;;;;;88.25;31.98;;;4.10;99.90;;;;;;5054291;28;20068;-74
2022/01/16 03:32:23;;;;;;;91.28;31.35;;;4.10;99.90;;;;;;5054814;28;20033;-74
2022/01/16 03:34:50;;;;;;;80.20;32.58;;;4.10;99.90;;;;;;5054604;28;20037;-74
2022/01/16 03:37:16;;;;;;;79.82;32.03;;;4.10;99.90;;;;;;5054618;28;20033;-75
2022/01/16 03:39:42;;;;;;;101.35;29.95;;;4.20;99.90;;;;;;5054146;28;20468;-75
2022/01/16 03:42:08;;;;;;;82.13;31.60;;;4.20;99.90;;;;;;5054580;28;20046;-75
2022/01/16 03:44:33;;;;;;;186.73;32.88;;;4.20;99.90;;;;;;5054733;28;20043;-74
2022/01/16 03:46:59;;;;;;;75.70;32.20;;;4.20;99.90;;;;;;5054262;28;20024;-73
2022/01/16 03:49:28;;;;;;;174.73;32.90;;;4.20;99.90;;;;;;5054618;28;20166;-73
2022/01/16 03:51:54;;;;;;;82.00;31.88;;;4.20;99.90;;;;;;5063153;28;20052;-73
2022/01/16 03:54:23;;;;;;;109.75;32.30;;;4.20;99.90;;;;;;5056212;28;20029;-74
2022/01/16 03:56:50;;;;;;;68.93;31.40;;;4.30;99.90;;;;;;5054084;28;20037;-74
2022/01/16 03:59:16;;;;;;;80.07;33.15;;;4.30;99.90;;;;;;5054157;28;20025;-74
2022/01/16 04:01:42;;;;;;;87.00;33.50;;;4.40;99.90;;;;;;5054144;28;20037;-74
2022/01/16 04:04:08;;;;;;;80.05;33.95;;;4.40;99.90;;;;;;5053971;28;20029;-74
2022/01/16 04:06:34;;;;;;;92.50;32.40;;;4.40;99.90;;;;;;5053646;28;20079;-74
2022/01/16 04:09:00;;;;;;;80.53;31.85;;;4.40;99.90;;;;;;5053812;28;20431;-74
2022/01/16 04:11:28;;;;;;;80.35;32.75;;;4.40;99.90;;;;;;5053347;28;20045;-74
2022/01/16 04:14:03;;;;;;;75.18;33.13;;;4.30;99.90;;;;;;5054096;28;20065;-74
2022/01/16 04:16:30;;;;;;;81.75;33.80;;;4.30;99.90;;;;;;5052771;28;20036;-74
2022/01/16 04:18:55;;;;;;;113.82;33.42;;;4.30;99.90;;;;;;5053728;28;20025;-74
2022/01/16 04:21:23;;;;;;;75.43;32.28;;;4.30;99.90;;;;;;5053364;28;20043;-74
2022/01/16 04:23:50;;;;;;;87.35;34.05;;;4.30;99.90;;;;;;5054108;28;20147;-74
2022/01/16 04:26:17;;;;;;;86.53;32.08;;;4.30;99.90;;;;;;5053381;28;20060;-74
2022/01/16 04:28:46;;;;;;;77.43;32.97;;;4.30;99.90;;;;;;5053706;28;20029;-74
2022/01/16 04:31:12;;;;;;;66.50;32.45;;;4.40;99.90;;;;;;5053184;28;20449;-74
2022/01/16 04:33:38;;;;;;;76.50;32.35;;;4.40;99.90;;;;;;5053749;28;20040;-74
2022/01/16 04:36:04;;;;;;;79.65;34.60;;;4.40;99.90;;;;;;5053279;28;20373;-74
2022/01/16 04:38:29;;;;;;;80.15;35.15;;;4.40;99.90;;;;;;5036464;28;20488;-74
2022/01/16 04:43:48;;;;;;;82.18;36.90;;;4.30;99.90;;;;;;5053648;28;20040;-74
2022/01/16 04:46:25;;;;;;;74.30;33.50;;;4.30;99.90;;;;;;5053064;28;20048;-74
2022/01/16 04:48:53;;;;;;;73.57;33.40;;;4.30;99.90;;;;;;5056235;28;20070;-73
2022/01/16 04:51:20;;;;;;;80.90;35.97;;;4.30;99.90;;;;;;5057164;28;20063;-74
2022/01/16 04:53:46;;;;;;;82.22;36.53;;;4.30;99.90;;;;;;5053598;28;20036;-73
2022/01/16 04:56:13;;;;;;;81.18;36.13;;;4.30;99.90;;;;;;5053231;28;20502;-73
2022/01/16 04:58:39;;;;;;;79.38;36.05;;;4.40;99.90;;;;;;5053058;28;20102;-74
2022/01/16 05:01:06;;;;;;;74.43;35.38;;;4.40;99.90;;;;;;5052582;28;20040;-74
2022/01/16 05:03:33;;;;;;;75.90;35.78;;;4.40;99.90;;;;;;5052888;28;20050;-74
2022/01/16 05:05:59;;;;;;;75.47;36.13;;;4.40;99.90;;;;;;5052773;28;20396;-74
2022/01/16 05:08:25;;;;;;;80.13;38.85;;;4.40;99.90;;;;;;5053284;28;20564;-73
2022/01/16 05:10:54;;;;;;;68.32;34.65;;;4.40;99.90;;;;;;5052240;28;20539;-74
2022/01/16 05:18:37;;;;;;;69.18;34.47;;;4.50;99.90;;;;;;5053005;28;20408;-75
2022/01/16 05:21:03;;;;;;;74.45;37.33;;;4.60;99.90;;;;;;5052710;28;20033;-75
2022/01/16 05:23:29;;;;;;;79.38;38.42;;;4.60;99.90;;;;;;5052937;28;20033;-75
2022/01/16 05:25:55;;;;;;;74.85;36.75;;;4.50;99.90;;;;;;5052644;28;20033;-76
2022/01/16 05:28:21;;;;;;;78.35;37.28;;;4.50;99.90;;;;;;5052938;28;20029;-75
2022/01/16 05:30:49;;;;;;;82.78;39.55;;;4.50;99.90;;;;;;5052609;28;20033;-75
2022/01/16 05:33:14;;;;;;;87.50;41.92;;;4.40;99.90;;;;;;5052848;28;20060;-75
2022/01/16 05:35:40;;;;;;;81.20;39.50;;;4.40;99.90;;;;;;5052349;28;20056;-76
2022/01/16 05:38:06;;;;;;;83.07;39.05;;;4.40;99.90;;;;;;5052820;28;20033;-75
2022/01/16 05:40:32;;;;;;;82.50;40.53;;;4.30;99.90;;;;;;5052193;28;20100;-76
2022/01/16 05:42:58;;;;;;;81.70;40.88;;;4.30;99.90;;;;;;5053234;28;20025;-75
2022/01/16 05:45:24;;;;;;;81.82;40.83;;;4.30;99.90;;;;;;5052751;28;20071;-73
2022/01/16 05:47:50;;;;;;;83.20;40.05;;;4.30;99.90;;;;;;5060844;28;20032;-74
2022/01/16 05:50:16;;;;;;;85.45;41.55;;;4.30;99.90;;;;;;5053241;28;20033;-74
2022/01/16 05:52:41;;;;;;;86.25;42.13;;;4.30;99.90;;;;;;5052324;28;20511;-75
2022/01/16 05:55:08;;;;;;;87.70;41.95;;;4.30;99.90;;;;;;5051788;28;20033;-74
2022/01/16 05:57:33;;;;;;;87.57;41.80;;;4.40;99.90;;;;;;5052648;28;20036;-73
2022/01/16 05:59:59;;;;;;;92.40;41.70;;;4.30;99.90;;;;;;5052123;28;20029;-74
2022/01/16 06:02:28;;;;;;;90.35;42.83;;;4.30;99.90;;;;;;5054517;28;20078;-74
2022/01/16 06:04:53;;;;;;;86.03;41.58;;;4.30;99.90;;;;;;5055733;28;20025;-74
2022/01/16 06:07:19;;;;;;;89.53;42.17;;;4.30;99.90;;;;;;5056220;28;20473;-74
2022/01/16 06:09:45;;;;;;;77.72;38.25;;;4.20;99.90;;;;;;5056322;28;20075;-74
2022/01/16 06:12:11;;;;;;;90.78;44.22;;;4.30;99.90;;;;;;5056037;28;20029;-74
2022/01/16 06:14:37;;;;;;;81.90;42.20;;;4.30;99.90;;;;;;5055972;28;20021;-75
2022/01/16 06:17:03;;;;;;;89.20;45.97;;;4.30;99.90;;;;;;5055905;28;20139;-74
2022/01/16 06:19:29;;;;;;;89.90;43.38;;;4.30;99.90;;;;;;5055246;28;20025;-74
2022/01/16 06:21:54;;;;;;;87.72;42.20;;;4.30;99.90;;;;;;5055652;28;20039;-76
2022/01/16 06:24:20;;;;;;;94.40;44.95;;;4.30;99.90;;;;;;5055551;28;20093;-74
2022/01/16 06:26:46;;;;;;;88.10;43.33;;;4.30;99.90;;;;;;5055317;28;20472;-74
2022/01/16 06:29:12;;;;;;;87.00;44.03;;;4.40;99.90;;;;;;5055961;28;20033;-75
2022/01/16 06:31:37;;;;;;;86.72;44.10;;;4.40;99.90;;;;;;5055536;28;20102;-73
2022/01/16 06:34:06;;;;;;;92.68;45.25;;;4.40;99.90;;;;;;5056120;28;20028;-76
2022/01/16 06:36:32;;;;;;;95.00;44.55;;;4.30;99.90;;;;;;5055242;28;20036;-75
2022/01/16 06:38:58;;;;;;;94.35;44.65;;;4.30;99.90;;;;;;5056093;28;20029;-76
2022/01/16 06:41:23;;;;;;;92.80;46.10;;;4.20;99.90;;;;;;5055710;28;20025;-76
2022/01/16 06:43:49;;;;;;;93.95;48.47;;;4.20;99.90;;;;;;5056813;28;20028;-74
2022/01/16 06:46:15;;;;;;;91.18;46.95;;;4.20;99.90;;;;;;5074229;28;20158;-75
2022/01/16 06:48:40;;;;;;;102.15;48.38;;;4.10;99.90;;;;;;5067299;28;20091;-74
2022/01/16 06:51:07;;;;;;;92.85;47.90;;;4.10;99.90;;;;;;5054883;28;20041;-74
2022/01/16 06:53:34;;;;;;;91.38;45.97;;;4.10;99.90;;;;;;5055999;28;20060;-74
2022/01/16 06:55:59;;;;;;;95.25;48.53;;;4.10;99.90;;;;;;5054805;28;20029;-74
2022/01/16 06:58:25;;;;;;;95.53;46.33;;;4.10;99.90;;;;;;5054813;28;20028;-74
2022/01/16 07:00:51;;;;;;;88.22;46.63;;;4.10;99.90;;;;;;5037939;28;20481;-74
2022/01/16 07:03:18;;;;;;;97.43;48.20;;;4.10;99.90;;;;;;5035012;28;20448;-74
2022/01/16 07:05:44;;;;;;;90.30;47.17;;;4.10;99.90;;;;;;5033684;28;20080;-74
2022/01/16 07:08:10;;;;;;;94.07;50.22;;;4.10;99.90;;;;;;5028284;28;20033;-74
2022/01/16 07:10:37;;;;;;;91.57;47.55;;;4.20;99.90;;;;;;5021764;28;20147;-73
2022/01/16 07:13:03;;;;;;;89.68;48.20;;;4.20;99.90;;;;;;5034505;28;20064;-74
2022/01/16 07:15:29;;;;;;;87.22;46.33;;;4.20;99.90;;;;;;5027140;28;20026;-74
2022/01/16 07:17:55;;;;;;;91.53;47.58;;;4.20;99.90;;;;;;5035235;28;20116;-74
2022/01/16 07:20:21;;;;;;;88.75;46.78;;;4.10;99.90;;;;;;5038209;28;20115;-73
2022/01/16 07:22:47;;;;;;;88.68;46.80;;;4.20;99.90;;;;;;5055131;28;20035;-74
2022/01/16 07:25:13;;;;;;;90.80;47.25;;;4.20;99.90;;;;;;5054749;28;20036;-76
2022/01/16 07:27:40;;;;;;;81.45;44.88;;;4.20;99.90;;;;;;5054067;28;20059;-74
2022/01/16 07:30:07;;;;;;;86.97;46.50;;;4.20;99.90;;;;;;5054712;28;20063;-74
2022/01/16 07:32:33;;;;;;;85.53;46.90;;;4.20;99.90;;;;;;5054764;28;20029;-74
2022/01/16 07:34:59;;;;;;;83.07;43.70;;;4.20;99.90;;;;;;5054560;28;20052;-74
2022/01/16 07:37:25;;;;;;;82.82;44.85;;;4.20;99.90;;;;;;5044882;28;20068;-73
2022/01/16 07:39:50;;;;;;;80.10;44.50;;;4.30;99.90;;;;;;5038805;28;20021;-75
2022/01/16 07:42:16;;;;;;;80.35;44.95;;;4.30;99.90;;;;;;5047163;28;20025;-75
2022/01/16 07:44:42;;;;;;;81.07;44.00;;;4.30;99.90;;;;;;5056252;28;20038;-75
2022/01/16 07:47:07;;;;;;;80.88;44.88;;;4.30;99.90;;;;;;5045891;28;20025;-76
2022/01/16 07:49:33;;;;;;;80.93;44.45;;;4.40;99.90;;;;;;5038965;28;20033;-76
2022/01/16 07:51:59;;;;;;;80.82;45.55;;;4.40;99.90;;;;;;5040714;28;20167;-76
2022/01/16 07:54:24;;;;;;;81.57;43.83;;;4.40;99.90;;;;;;5039580;28;20096;-75
2022/01/16 07:56:50;;;;;;;77.90;44.20;;;4.40;99.90;;;;;;5036939;28;20068;-77
2022/01/16 07:59:16;;;;;;;78.25;44.45;;;4.40;99.90;;;;;;5039330;28;20029;-75
2022/01/16 08:01:42;;;;;;;79.70;44.60;;;4.40;99.90;;;;;;5035778;28;20127;-74
2022/01/16 08:04:08;;;;;;;73.35;43.38;;;4.40;99.90;;;;;;5034772;28;20028;-72
2022/01/16 08:06:34;;;;;;;70.85;41.38;;;4.40;99.90;;;;;;5046942;28;20025;-74
2022/01/16 08:08:59;;;;;;;73.15;42.83;;;4.40;99.90;;;;;;5044253;28;20021;-74
2022/01/16 08:11:25;;;;;;;78.07;43.75;;;4.50;99.90;;;;;;5038532;28;20032;-74
2022/01/16 08:13:51;;;;;;;69.22;40.60;;;4.50;99.90;;;;;;5040794;28;20108;-74
2022/01/16 08:16:16;;;;;;;74.78;42.38;;;4.50;99.90;;;;;;5037490;28;20029;-74
2022/01/16 08:18:42;;;;;;;74.82;42.00;;;4.60;99.90;;;;;;5035936;28;20121;-75
2022/01/16 08:21:07;;;;;;;68.93;39.85;;;4.60;99.90;;;;;;5036766;28;20549;-72
2022/01/16 08:23:33;;;;;;;71.47;40.78;;;4.60;99.90;;;;;;5034616;28;20030;-73
2022/01/16 08:25:59;;;;;;;71.18;41.10;;;4.60;99.90;;;;;;5044029;28;20047;-73
2022/01/16 08:28:25;;;;;;;64.97;40.58;;;4.70;99.90;;;;;;5052900;28;20055;-72
2022/01/16 08:30:51;;;;;;;73.07;40.97;;;4.70;99.90;;;;;;5053375;28;20036;-72
2022/01/16 08:33:17;;;;;;;67.30;38.15;;;4.70;99.90;;;;;;5052753;28;20033;-72
2022/01/16 08:35:42;;;;;;;69.15;40.20;;;4.80;99.90;;;;;;5053385;28;20116;-72
2022/01/16 08:38:08;;;;;;;68.18;39.85;;;4.80;99.90;;;;;;5041366;28;20061;-72
2022/01/16 08:40:34;;;;;;;61.65;37.60;;;4.80;99.90;;;;;;5048048;28;20021;-70
2022/01/16 08:43:07;;;;;;;66.55;37.60;;;4.80;99.90;;;;;;5053857;28;20029;-71
2022/01/16 08:45:34;;;;;;;64.90;38.58;;;4.90;99.90;;;;;;5052548;28;20079;-72
2022/01/16 08:48:00;;;;;;;64.50;38.83;;;4.90;99.90;;;;;;5053501;28;20033;-72
2022/01/16 08:50:25;;;;;;;65.35;38.53;;;4.90;99.90;;;;;;5052443;28;20039;-74
2022/01/16 08:52:51;;;;;;;65.78;37.40;;;5.00;99.90;;;;;;5053509;28;20044;-76
2022/01/16 08:55:16;;;;;;;65.65;37.67;;;5.00;99.90;;;;;;5052775;28;20032;-73
2022/01/16 08:57:42;;;;;;;65.47;35.85;;;5.00;99.90;;;;;;5052668;28;20078;-74
2022/01/16 09:00:09;;;;;;;56.67;35.15;;;5.00;99.90;;;;;;5052461;28;20063;-73
2022/01/16 09:02:35;;;;;;;57.80;35.13;;;5.10;99.90;;;;;;5053103;28;20087;-79
2022/01/16 09:05:01;;;;;;;54.47;35.20;;;5.10;99.90;;;;;;5053023;28;20044;-77
2022/01/16 09:07:27;;;;;;;59.17;34.30;;;5.10;99.90;;;;;;5053574;28;20056;-77
2022/01/16 09:09:52;;;;;;;57.97;33.30;;;5.10;99.90;;;;;;5052733;28;20021;-78
2022/01/16 09:12:18;;;;;;;51.45;32.70;;;5.10;99.90;;;;;;5053247;28;20378;-78
2022/01/16 09:14:43;;;;;;;53.20;32.08;;;5.10;99.90;;;;;;5053155;28;20021;-77
2022/01/16 09:17:09;;;;;;;55.05;32.03;;;5.10;99.90;;;;;;5052779;28;20029;-79
2022/01/16 09:19:35;;;;;;;53.83;32.22;;;5.20;99.90;;;;;;5052678;28;20029;-80
2022/01/16 09:22:01;;;;;;;53.17;32.40;;;5.20;99.90;;;;;;5052764;28;20040;-80
2022/01/16 09:24:27;;;;;;;52.10;31.63;;;5.20;99.90;;;;;;5037099;28;20033;-78
2022/01/16 09:26:54;;;;;;;50.13;32.30;;;5.30;99.90;;;;;;5048699;28;20382;-76
2022/01/16 09:29:21;;;;;;;55.13;31.75;;;5.40;99.90;;;;;;5036240;28;20166;-76
2022/01/16 09:31:47;;;;;;;50.53;32.58;;;5.40;99.90;;;;;;5037048;28;20088;-77
2022/01/16 09:34:12;;;;;;;51.70;32.03;;;5.50;99.90;;;;;;5033966;28;20466;-76
2022/01/16 09:36:38;;;;;;;51.95;31.50;;;5.50;99.90;;;;;;5042023;28;20087;-76
2022/01/16 09:39:04;;;;;;;48.63;31.33;;;5.60;99.90;;;;;;5052650;28;20112;-77
2022/01/16 09:41:29;;;;;;;49.53;30.65;;;5.70;99.90;;;;;;5039884;28;20465;-77
2022/01/16 09:43:55;;;;;;;53.83;31.30;;;5.70;99.90;;;;;;5036498;28;20017;-75
2022/01/16 09:46:21;;;;;;;47.65;28.60;;;5.70;99.90;;;;;;5055535;28;20457;-78
2022/01/16 09:48:46;;;;;;;57.63;32.47;;;5.80;99.90;;;;;;5057032;28;20021;-77
2022/01/16 09:51:12;;;;;;;55.67;31.40;;;5.80;99.90;;;;;;5047543;28;20428;-79
2022/01/16 09:53:42;;;;;;;55.00;31.67;;;5.90;99.90;;;;;;5034537;28;20469;-76
2022/01/16 09:56:09;;;;;;;55.53;31.98;;;5.90;99.90;;;;;;5038057;28;21445;-80
2022/01/16 09:58:34;;;;;;;52.90;30.23;;;5.90;99.90;;;;;;5037495;28;20026;-76
2022/01/16 10:01:00;;;;;;;56.25;31.17;;;5.90;99.90;;;;;;5050302;28;20033;-74
2022/01/16 10:03:38;;;;;;;54.80;31.85;;;6.00;99.90;;;;;;5056416;28;20033;-73
2022/01/16 10:06:24;;;;;;;52.88;31.15;;;6.00;99.90;;;;;;5055728;28;20059;-76
2022/01/16 10:08:52;;;;;;;60.22;31.95;;;6.00;99.90;;;;;;5056248;28;20029;-77
2022/01/16 10:11:39;;;;;;;54.45;30.85;;;6.00;99.90;;;;;;5055648;28;20492;-75
2022/01/16 10:14:22;;;;;;;56.47;31.10;;;6.00;99.90;;;;;;5054212;28;20039;-75
2022/01/16 10:16:48;;;;;;;58.95;32.35;;;6.00;99.90;;;;;;5042953;28;20026;-74
2022/01/16 10:19:28;;;;;;;58.50;31.63;;;6.00;99.90;;;;;;5052103;28;20037;-73
2022/01/16 10:22:01;;;;;;;62.33;33.70;;;6.00;99.90;;;;;;5051548;28;20112;-73
2022/01/16 10:24:30;;;;;;;62.63;33.22;;;6.00;99.90;;;;;;5045839;28;20477;-73
2022/01/16 10:27:07;;;;;;;55.60;32.60;;;6.00;99.90;;;;;;5041625;28;20029;-73
2022/01/16 10:29:39;;;;;;;68.43;35.88;;;6.00;99.90;;;;;;5035728;28;20028;-73
2022/01/16 10:32:17;;;;;;;68.45;33.75;;;6.00;99.90;;;;;;5040182;28;20044;-73
2022/01/16 10:34:45;;;;;;;67.97;36.50;;;6.00;99.90;;;;;;5041498;28;20021;-72
2022/01/16 10:37:22;;;;;;;67.90;35.67;;;6.00;99.90;;;;;;5051295;28;20085;-70
2022/01/16 10:40:00;;;;;;;68.47;36.00;;;6.00;99.90;;;;;;5037791;28;20029;-71
2022/01/16 10:42:31;;;;;;;71.97;36.42;;;6.00;99.90;;;;;;5037445;28;20087;-73
2022/01/16 10:45:00;;;;;;;73.30;38.78;;;6.00;99.90;;;;;;5038828;28;20057;-73
2022/01/16 10:47:35;;;;;;;74.13;37.97;;;6.10;99.90;;;;;;5048886;28;20033;-77
2022/01/16 10:50:14;;;;;;;77.72;36.30;;;6.10;99.90;;;;;;5041762;28;20027;-74
2022/01/16 10:53:00;;;;;;;71.22;36.60;;;6.00;99.90;;;;;;5033790;28;20072;-72
2022/01/16 10:55:46;;;;;;;65.95;36.38;;;6.10;99.90;;;;;;5037279;28;20029;-72
2022/01/16 10:58:17;;;;;;;76.30;38.33;;;6.10;99.90;;;;;;5037048;28;20029;-72
2022/01/16 11:01:05;;;;;;;75.72;39.35;;;6.10;99.90;;;;;;5045023;28;20038;-72
2022/01/16 11:03:59;;;;;;;76.45;39.88;;;6.10;99.90;;;;;;5034044;28;20497;-72
2022/01/16 11:06:27;;;;;;;78.13;39.20;;;6.20;99.90;;;;;;5032489;28;20524;-72
2022/01/16 11:09:01;;;;;;;77.28;39.47;;;6.20;99.90;;;;;;5033433;28;20048;-72
2022/01/16 11:11:28;;;;;;;80.32;39.35;;;6.20;99.90;;;;;;5025212;28;20045;-72
2022/01/16 11:13:55;;;;;;;83.30;41.80;;;6.20;99.90;;;;;;5029038;28;20026;-73
2022/01/16 11:16:23;;;;;;;80.57;40.80;;;6.30;99.90;;;;;;5037847;28;20087;-73
2022/01/16 11:18:51;;;;;;;72.25;39.88;;;6.20;99.90;;;;;;5054755;28;20539;-73
2022/01/16 11:21:31;;;;;;;89.38;42.05;;;6.20;99.90;;;;;;5054905;28;20069;-74
2022/01/16 11:24:23;;;;;;;81.32;42.65;;;6.20;99.90;;;;;;5054839;28;20032;-73
2022/01/16 11:26:49;;;;;;;89.07;44.75;;;6.20;99.90;;;;;;5053689;28;20037;-74
2022/01/16 11:29:15;;;;;;;93.07;46.78;;;6.20;99.90;;;;;;5054733;28;20132;-74
2022/01/16 11:31:43;;;;;;;89.57;43.70;;;6.20;99.90;;;;;;5060618;28;20037;-71
2022/01/16 11:34:10;;;;;;;87.15;43.55;;;6.10;99.90;;;;;;5063871;28;20037;-73
2022/01/16 11:36:36;;;;;;;92.93;47.13;;;6.10;99.90;;;;;;5056785;28;20037;-76
2022/01/16 11:39:04;;;;;;;89.53;44.75;;;6.10;99.90;;;;;;5055334;28;20036;-75
2022/01/16 11:41:34;;;;;;;98.30;47.67;;;6.10;99.90;;;;;;5054165;28;20048;-75
2022/01/16 11:44:08;;;;;;;100.78;46.47;;;6.10;99.90;;;;;;5054487;28;20028;-75
2022/01/16 11:46:48;;;;;;;99.68;46.10;;;6.10;99.90;;;;;;5053623;28;20484;-74
2022/01/16 11:49:18;;;;;;;93.60;44.55;;;6.10;99.90;;;;;;5049471;28;20036;-72
2022/01/16 11:51:51;;;;;;;92.97;46.00;;;6.20;99.90;;;;;;5038548;28;20092;-73
2022/01/16 11:54:28;;;;;;;95.05;42.90;;;6.20;99.90;;;;;;5034884;28;20025;-75
2022/01/16 11:57:05;;;;;;;98.50;45.70;;;6.20;99.90;;;;;;5048359;28;20029;-75
2022/01/16 11:59:34;;;;;;;94.18;46.38;;;6.20;99.90;;;;;;5024754;28;20040;-74
2022/01/16 12:02:04;;;;;;;99.18;45.35;;;6.30;99.90;;;;;;5048099;28;20052;-75
2022/01/16 12:04:29;;;;;;;91.78;42.75;;;6.20;99.90;;;;;;5036496;28;20425;-77
2022/01/16 12:07:13;;;;;;;88.80;42.05;;;6.20;99.90;;;;;;5041254;28;20095;-74
2022/01/16 12:12:16;;;;;;;98.85;44.25;;;6.20;99.90;;;;;;5038296;28;20124;-77
2022/01/16 12:15:00;;;;;;;96.90;42.35;;;6.20;99.90;;;;;;5032677;28;20029;-74
2022/01/16 12:17:46;;;;;;;100.35;43.42;;;6.20;99.90;;;;;;5035191;28;20551;-73
2022/01/16 12:20:18;;;;;;;99.50;42.55;;;6.20;99.90;;;;;;5039261;28;20035;-75
2022/01/16 12:22:57;;;;;;;106.35;43.63;;;6.20;99.90;;;;;;5053990;28;20029;-77
2022/01/16 12:25:24;;;;;;;95.88;42.60;;;6.20;99.90;;;;;;5053451;28;20059;-76
2022/01/16 12:27:51;;;;;;;100.72;44.45;;;6.10;99.90;;;;;;5051291;28;20120;-76
2022/01/16 12:30:22;;;;;;;100.97;43.17;;;6.10;99.90;;;;;;5038730;28;20511;-75
2022/01/16 12:32:54;;;;;;;105.15;42.80;;;6.10;99.90;;;;;;5026215;28;20048;-76
2022/01/16 12:35:38;;;;;;;101.43;43.67;;;6.20;99.90;;;;;;5036727;28;20029;-77
2022/01/16 12:38:16;;;;;;;103.97;42.33;;;6.20;99.90;;;;;;5031395;28;20103;-77
2022/01/16 12:40:45;;;;;;;105.60;46.95;;;6.30;99.90;;;;;;5043559;28;20040;-79
2022/01/16 12:43:16;;;;;;;99.38;41.60;;;6.30;99.90;;;;;;5051576;28;20035;-80
2022/01/16 12:45:45;;;;;;;107.60;44.95;;;6.30;99.90;;;;;;5040804;28;20028;-79
2022/01/16 12:48:10;;;;;;;103.45;44.78;;;6.40;99.90;;;;;;5053179;28;20029;-77
2022/01/16 12:50:37;;;;;;;102.70;45.03;;;6.40;99.90;;;;;;5052731;28;20029;-80
2022/01/16 12:53:04;;;;;;;106.55;45.15;;;6.40;99.90;;;;;;5052823;28;20033;-75
2022/01/16 12:55:35;;;;;;;103.47;43.75;;;6.50;99.90;;;;;;5051446;28;20029;-77
2022/01/16 12:58:16;;;;;;;108.15;46.85;;;6.60;99.90;;;;;;5052393;28;20029;-75
2022/01/16 13:01:02;;;;;;;107.30;45.85;;;6.60;99.90;;;;;;5052342;28;20063;-74
2022/01/16 13:03:30;;;;;;;103.63;44.45;;;6.60;99.90;;;;;;5050028;28;20110;-73
2022/01/16 13:06:27;;;;;;;107.78;46.38;;;6.60;99.90;;;;;;5052702;28;20074;-74
2022/01/16 13:09:10;;;;;;;105.20;45.05;;;6.70;99.90;;;;;;5052699;28;20162;-75
2022/01/16 13:11:41;;;;;;;105.93;46.17;;;6.70;99.90;;;;;;5052183;28;20052;-76
2022/01/16 13:14:12;;;;;;;103.68;45.53;;;6.70;99.90;;;;;;5041482;28;20068;-76
2022/01/16 13:16:49;;;;;;;101.78;45.03;;;6.70;99.90;;;;;;5039426;28;20029;-74
2022/01/16 13:19:18;;;;;;;104.07;46.85;;;6.70;99.90;;;;;;5033952;28;20029;-74
2022/01/16 13:24:24;;;;;;;108.78;49.05;;;6.80;99.90;;;;;;5030930;28;20070;-75
2022/01/16 13:26:50;;;;;;;107.35;46.45;;;6.80;99.90;;;;;;5037637;28;20030;-74
2022/01/16 13:29:18;;;;;;;113.10;50.05;;;6.80;99.90;;;;;;5034490;28;20045;-74